sensor_id;sensor_type;location;lat;lon;timestamp;P1;durP1;ratioP1;P2;durP2;ratioP2
15443;SDS011;7822;48.146;11.576;2022-07-09T00:01:03;4.05;;;2.55;;
15443;SDS011;7822;48.146;11.576;2022-07-09T00:03:30;2.90;;;2.55;;
15443;SDS011;7822;48.146;11.576;2022-07-09T00:05:58;5.60;;;2.50;;
15443;SDS011;7822;48.146;11.576;2022-07-09T00:08:29;3.47;;;2.50;;
15443;SDS011;7822;48.146;11.576;2022-07-09T00:11:00;4.07;;;2.80;;
15443;SDS011;7822;48.146;11.576;2022-07-09T00:13:28;3.97;;;3.08;;
15443;SDS011;7822;48.146;11.576;2022-07-09T00:15:55;2.90;;;2.30;;
15443;SDS011;7822;48.146;11.576;2022-07-09T00:18:23;4.05;;;2.92;;
15443;SDS011;7822;48.146;11.576;2022-07-09T00:20:53;3.08;;;2.20;;
15443;SDS011;7822;48.146;11.576;2022-07-09T00:23:21;3.03;;;2.58;;
15443;SDS011;7822;48.146;11.576;2022-07-09T00:25:49;3.83;;;2.50;;
15443;SDS011;7822;48.146;11.576;2022-07-09T00:28:20;4.78;;;2.97;;
15443;SDS011;7822;48.146;11.576;2022-07-09T00:30:48;2.97;;;2.30;;
15443;SDS011;7822;48.146;11.576;2022-07-09T00:33:15;3.72;;;2.45;;
15443;SDS011;7822;48.146;11.576;2022-07-09T00:35:43;3.80;;;2.60;;
15443;SDS011;7822;48.146;11.576;2022-07-09T00:38:11;3.35;;;2.33;;
15443;SDS011;7822;48.146;11.576;2022-07-09T00:40:39;3.55;;;2.50;;
15443;SDS011;7822;48.146;11.576;2022-07-09T00:43:14;4.78;;;2.30;;
15443;SDS011;7822;48.146;11.576;2022-07-09T00:45:45;3.53;;;2.25;;
15443;SDS011;7822;48.146;11.576;2022-07-09T00:48:13;4.72;;;2.20;;
15443;SDS011;7822;48.146;11.576;2022-07-09T00:50:42;2.33;;;2.08;;
15443;SDS011;7822;48.146;11.576;2022-07-09T00:53:11;3.33;;;2.63;;
15443;SDS011;7822;48.146;11.576;2022-07-09T00:55:41;4.38;;;2.60;;
15443;SDS011;7822;48.146;11.576;2022-07-09T00:58:10;2.58;;;2.38;;
15443;SDS011;7822;48.146;11.576;2022-07-09T01:00:39;3.15;;;2.80;;
15443;SDS011;7822;48.146;11.576;2022-07-09T01:03:10;2.63;;;2.38;;
15443;SDS011;7822;48.146;11.576;2022-07-09T01:05:38;3.40;;;2.90;;
15443;SDS011;7822;48.146;11.576;2022-07-09T01:08:06;5.40;;;3.10;;
15443;SDS011;7822;48.146;11.576;2022-07-09T01:10:35;3.17;;;2.17;;
15443;SDS011;7822;48.146;11.576;2022-07-09T01:13:04;2.90;;;2.42;;
15443;SDS011;7822;48.146;11.576;2022-07-09T01:15:32;3.33;;;2.50;;
15443;SDS011;7822;48.146;11.576;2022-07-09T01:18:00;2.90;;;2.28;;
15443;SDS011;7822;48.146;11.576;2022-07-09T01:20:30;2.92;;;2.40;;
15443;SDS011;7822;48.146;11.576;2022-07-09T01:22:58;2.40;;;2.20;;
15443;SDS011;7822;48.146;11.576;2022-07-09T01:25:28;2.75;;;2.33;;
15443;SDS011;7822;48.146;11.576;2022-07-09T01:28:01;3.88;;;2.28;;
15443;SDS011;7822;48.146;11.576;2022-07-09T01:30:31;3.30;;;2.40;;
15443;SDS011;7822;48.146;11.576;2022-07-09T01:33:00;3.17;;;2.05;;
15443;SDS011;7822;48.146;11.576;2022-07-09T01:35:30;2.08;;;1.98;;
15443;SDS011;7822;48.146;11.576;2022-07-09T01:37:57;2.13;;;1.80;;
15443;SDS011;7822;48.146;11.576;2022-07-09T01:40:25;3.03;;;2.20;;
15443;SDS011;7822;48.146;11.576;2022-07-09T01:42:53;2.05;;;1.83;;
15443;SDS011;7822;48.146;11.576;2022-07-09T01:45:21;5.65;;;2.08;;
15443;SDS011;7822;48.146;11.576;2022-07-09T01:47:49;2.55;;;2.05;;
15443;SDS011;7822;48.146;11.576;2022-07-09T01:50:17;2.20;;;1.98;;
15443;SDS011;7822;48.146;11.576;2022-07-09T01:52:46;3.17;;;2.13;;
15443;SDS011;7822;48.146;11.576;2022-07-09T01:55:13;2.35;;;1.90;;
15443;SDS011;7822;48.146;11.576;2022-07-09T01:57:41;3.42;;;2.03;;
15443;SDS011;7822;48.146;11.576;2022-07-09T02:00:09;2.58;;;2.00;;
15443;SDS011;7822;48.146;11.576;2022-07-09T02:02:38;3.15;;;1.98;;
15443;SDS011;7822;48.146;11.576;2022-07-09T02:05:06;3.20;;;1.90;;
15443;SDS011;7822;48.146;11.576;2022-07-09T02:07:34;2.70;;;1.90;;
15443;SDS011;7822;48.146;11.576;2022-07-09T02:10:04;4.05;;;2.40;;
15443;SDS011;7822;48.146;11.576;2022-07-09T02:12:32;4.10;;;2.40;;
15443;SDS011;7822;48.146;11.576;2022-07-09T02:15:00;1.92;;;1.80;;
15443;SDS011;7822;48.146;11.576;2022-07-09T02:17:28;3.22;;;2.03;;
15443;SDS011;7822;48.146;11.576;2022-07-09T02:19:55;3.78;;;2.17;;
15443;SDS011;7822;48.146;11.576;2022-07-09T02:22:23;2.22;;;2.10;;
15443;SDS011;7822;48.146;11.576;2022-07-09T02:24:51;2.30;;;2.10;;
15443;SDS011;7822;48.146;11.576;2022-07-09T02:27:20;2.45;;;2.10;;
15443;SDS011;7822;48.146;11.576;2022-07-09T02:29:49;2.47;;;1.98;;
15443;SDS011;7822;48.146;11.576;2022-07-09T02:37:28;3.65;;;2.20;;
15443;SDS011;7822;48.146;11.576;2022-07-09T02:39:56;2.55;;;2.17;;
15443;SDS011;7822;48.146;11.576;2022-07-09T03:02:11;4.57;;;2.30;;
15443;SDS011;7822;48.146;11.576;2022-07-09T03:04:38;2.17;;;1.95;;
15443;SDS011;7822;48.146;11.576;2022-07-09T03:07:06;3.60;;;2.20;;
15443;SDS011;7822;48.146;11.576;2022-07-09T03:09:34;3.40;;;2.22;;
15443;SDS011;7822;48.146;11.576;2022-07-09T03:12:02;2.30;;;2.05;;
15443;SDS011;7822;48.146;11.576;2022-07-09T03:14:30;2.63;;;2.25;;
15443;SDS011;7822;48.146;11.576;2022-07-09T03:16:58;2.75;;;2.22;;
15443;SDS011;7822;48.146;11.576;2022-07-09T03:19:27;2.50;;;2.30;;
15443;SDS011;7822;48.146;11.576;2022-07-09T03:21:55;3.20;;;2.30;;
15443;SDS011;7822;48.146;11.576;2022-07-09T03:24:23;3.17;;;2.35;;
15443;SDS011;7822;48.146;11.576;2022-07-09T03:26:51;2.78;;;2.10;;
15443;SDS011;7822;48.146;11.576;2022-07-09T03:29:19;3.50;;;2.42;;
15443;SDS011;7822;48.146;11.576;2022-07-09T03:31:47;2.65;;;2.30;;
15443;SDS011;7822;48.146;11.576;2022-07-09T03:38:04;2.35;;;1.90;;
15443;SDS011;7822;48.146;11.576;2022-07-09T03:40:32;2.20;;;2.00;;
15443;SDS011;7822;48.146;11.576;2022-07-09T03:43:00;2.53;;;1.80;;
15443;SDS011;7822;48.146;11.576;2022-07-09T03:45:28;3.70;;;2.10;;
15443;SDS011;7822;48.146;11.576;2022-07-09T03:47:56;2.17;;;1.60;;
15443;SDS011;7822;48.146;11.576;2022-07-09T03:50:23;2.80;;;1.98;;
15443;SDS011;7822;48.146;11.576;2022-07-09T03:52:51;2.80;;;1.90;;
15443;SDS011;7822;48.146;11.576;2022-07-09T03:55:20;3.42;;;1.85;;
15443;SDS011;7822;48.146;11.576;2022-07-09T03:57:48;1.85;;;1.70;;
15443;SDS011;7822;48.146;11.576;2022-07-09T04:07:57;2.53;;;1.77;;
15443;SDS011;7822;48.146;11.576;2022-07-09T04:11:48;2.92;;;1.95;;
15443;SDS011;7822;48.146;11.576;2022-07-09T04:14:16;2.22;;;2.03;;
15443;SDS011;7822;48.146;11.576;2022-07-09T04:16:45;2.65;;;2.15;;
15443;SDS011;7822;48.146;11.576;2022-07-09T04:30:50;4.28;;;2.35;;
15443;SDS011;7822;48.146;11.576;2022-07-09T04:33:17;2.20;;;2.00;;
15443;SDS011;7822;48.146;11.576;2022-07-09T04:35:45;2.38;;;2.10;;
15443;SDS011;7822;48.146;11.576;2022-07-09T04:38:13;2.72;;;2.13;;
15443;SDS011;7822;48.146;11.576;2022-07-09T04:40:41;3.70;;;1.73;;
15443;SDS011;7822;48.146;11.576;2022-07-09T04:43:09;2.30;;;2.10;;
15443;SDS011;7822;48.146;11.576;2022-07-09T04:45:37;2.20;;;1.90;;
15443;SDS011;7822;48.146;11.576;2022-07-09T04:59:29;2.65;;;1.92;;
15443;SDS011;7822;48.146;11.576;2022-07-09T05:01:57;3.47;;;1.90;;
15443;SDS011;7822;48.146;11.576;2022-07-09T05:04:25;2.28;;;1.90;;
15443;SDS011;7822;48.146;11.576;2022-07-09T05:06:53;3.00;;;2.13;;
15443;SDS011;7822;48.146;11.576;2022-07-09T05:09:20;2.63;;;2.30;;
15443;SDS011;7822;48.146;11.576;2022-07-09T05:15:59;3.25;;;1.80;;
15443;SDS011;7822;48.146;11.576;2022-07-09T05:18:28;2.33;;;2.13;;
15443;SDS011;7822;48.146;11.576;2022-07-09T05:23:53;2.00;;;1.80;;
15443;SDS011;7822;48.146;11.576;2022-07-09T05:30:09;3.28;;;2.13;;
15443;SDS011;7822;48.146;11.576;2022-07-09T05:32:46;2.45;;;2.20;;
15443;SDS011;7822;48.146;11.576;2022-07-09T05:35:14;4.50;;;2.00;;
15443;SDS011;7822;48.146;11.576;2022-07-09T05:37:43;2.83;;;1.90;;
15443;SDS011;7822;48.146;11.576;2022-07-09T05:40:12;2.80;;;2.10;;
15443;SDS011;7822;48.146;11.576;2022-07-09T05:46:20;3.80;;;2.30;;
15443;SDS011;7822;48.146;11.576;2022-07-09T05:48:52;2.22;;;2.00;;
15443;SDS011;7822;48.146;11.576;2022-07-09T05:51:20;3.40;;;2.25;;
15443;SDS011;7822;48.146;11.576;2022-07-09T05:53:48;3.38;;;2.30;;
15443;SDS011;7822;48.146;11.576;2022-07-09T05:56:16;6.95;;;3.45;;
15443;SDS011;7822;48.146;11.576;2022-07-09T05:58:44;5.25;;;2.70;;
15443;SDS011;7822;48.146;11.576;2022-07-09T06:01:12;7.03;;;3.15;;
15443;SDS011;7822;48.146;11.576;2022-07-09T06:03:40;2.65;;;2.45;;
15443;SDS011;7822;48.146;11.576;2022-07-09T06:06:10;3.25;;;2.22;;
15443;SDS011;7822;48.146;11.576;2022-07-09T06:08:38;3.22;;;2.50;;
15443;SDS011;7822;48.146;11.576;2022-07-09T06:11:06;2.53;;;1.90;;
15443;SDS011;7822;48.146;11.576;2022-07-09T06:13:34;3.28;;;2.38;;
15443;SDS011;7822;48.146;11.576;2022-07-09T06:16:02;3.38;;;2.17;;
15443;SDS011;7822;48.146;11.576;2022-07-09T06:18:29;3.13;;;2.15;;
15443;SDS011;7822;48.146;11.576;2022-07-09T06:20:58;3.13;;;2.20;;
15443;SDS011;7822;48.146;11.576;2022-07-09T06:23:28;2.28;;;2.00;;
15443;SDS011;7822;48.146;11.576;2022-07-09T06:25:56;3.10;;;2.22;;
15443;SDS011;7822;48.146;11.576;2022-07-09T06:28:24;6.07;;;2.72;;
15443;SDS011;7822;48.146;11.576;2022-07-09T06:30:52;3.22;;;2.47;;
15443;SDS011;7822;48.146;11.576;2022-07-09T06:33:19;2.90;;;2.00;;
15443;SDS011;7822;48.146;11.576;2022-07-09T06:35:47;2.95;;;2.03;;
15443;SDS011;7822;48.146;11.576;2022-07-09T06:38:15;3.53;;;2.03;;
15443;SDS011;7822;48.146;11.576;2022-07-09T06:40:44;4.40;;;2.00;;
15443;SDS011;7822;48.146;11.576;2022-07-09T06:43:12;2.63;;;1.92;;
15443;SDS011;7822;48.146;11.576;2022-07-09T06:45:40;2.67;;;2.00;;
15443;SDS011;7822;48.146;11.576;2022-07-09T06:49:17;3.35;;;1.95;;
15443;SDS011;7822;48.146;11.576;2022-07-09T06:51:36;3.65;;;1.75;;
15443;SDS011;7822;48.146;11.576;2022-07-09T12:47:32;1.85;;;1.23;;
15443;SDS011;7822;48.146;11.576;2022-07-09T12:50:40;1.10;;;1.00;;
15443;SDS011;7822;48.146;11.576;2022-07-09T13:01:45;1.40;;;1.30;;
15443;SDS011;7822;48.146;11.576;2022-07-09T13:04:44;1.40;;;1.30;;
15443;SDS011;7822;48.146;11.576;2022-07-09T13:07:44;2.15;;;1.30;;
15443;SDS011;7822;48.146;11.576;2022-07-09T13:10:26;1.63;;;1.52;;
15443;SDS011;7822;48.146;11.576;2022-07-09T13:17:14;1.77;;;1.20;;
15443;SDS011;7822;48.146;11.576;2022-07-09T13:35:08;1.63;;;1.25;;
15443;SDS011;7822;48.146;11.576;2022-07-09T13:38:15;1.58;;;1.33;;
15443;SDS011;7822;48.146;11.576;2022-07-09T13:41:14;3.17;;;1.52;;
15443;SDS011;7822;48.146;11.576;2022-07-09T13:44:14;2.17;;;1.48;;
15443;SDS011;7822;48.146;11.576;2022-07-09T13:47:55;1.90;;;1.40;;
15443;SDS011;7822;48.146;11.576;2022-07-09T13:51:08;2.17;;;1.13;;
15443;SDS011;7822;48.146;11.576;2022-07-09T14:01:53;2.72;;;1.45;;
15443;SDS011;7822;48.146;11.576;2022-07-09T14:12:05;2.40;;;1.38;;
15443;SDS011;7822;48.146;11.576;2022-07-09T14:15:02;1.42;;;1.08;;
15443;SDS011;7822;48.146;11.576;2022-07-09T14:18:27;4.32;;;1.35;;
15443;SDS011;7822;48.146;11.576;2022-07-09T14:21:33;1.30;;;1.20;;
15443;SDS011;7822;48.146;11.576;2022-07-09T14:27:06;1.33;;;1.23;;
15443;SDS011;7822;48.146;11.576;2022-07-09T14:29:40;1.38;;;1.27;;
15443;SDS011;7822;48.146;11.576;2022-07-09T14:32:09;1.20;;;1.10;;
15443;SDS011;7822;48.146;11.576;2022-07-09T14:34:37;1.85;;;1.20;;
15443;SDS011;7822;48.146;11.576;2022-07-09T14:37:05;1.30;;;1.15;;
15443;SDS011;7822;48.146;11.576;2022-07-09T14:39:35;1.38;;;1.27;;
15443;SDS011;7822;48.146;11.576;2022-07-09T14:42:04;1.38;;;0.98;;
15443;SDS011;7822;48.146;11.576;2022-07-09T14:44:33;0.98;;;0.98;;
15443;SDS011;7822;48.146;11.576;2022-07-09T14:47:01;1.67;;;1.13;;
15443;SDS011;7822;48.146;11.576;2022-07-09T14:49:34;1.10;;;0.90;;
15443;SDS011;7822;48.146;11.576;2022-07-09T14:52:02;1.77;;;1.20;;
15443;SDS011;7822;48.146;11.576;2022-07-09T14:54:30;1.15;;;1.05;;
15443;SDS011;7822;48.146;11.576;2022-07-09T15:11:00;1.70;;;1.60;;
15443;SDS011;7822;48.146;11.576;2022-07-09T15:13:33;1.40;;;1.30;;
15443;SDS011;7822;48.146;11.576;2022-07-09T15:16:25;1.58;;;1.17;;
15443;SDS011;7822;48.146;11.576;2022-07-09T15:19:17;1.10;;;1.10;;
15443;SDS011;7822;48.146;11.576;2022-07-09T15:21:46;3.67;;;2.20;;
15443;SDS011;7822;48.146;11.576;2022-07-09T15:24:15;1.77;;;1.65;;
15443;SDS011;7822;48.146;11.576;2022-07-09T15:26:47;1.92;;;1.50;;
15443;SDS011;7822;48.146;11.576;2022-07-09T15:29:31;2.40;;;1.58;;
15443;SDS011;7822;48.146;11.576;2022-07-09T15:32:13;2.05;;;1.20;;
15443;SDS011;7822;48.146;11.576;2022-07-09T15:34:44;1.50;;;1.40;;
15443;SDS011;7822;48.146;11.576;2022-07-09T15:37:17;1.45;;;1.17;;
15443;SDS011;7822;48.146;11.576;2022-07-09T15:39:45;1.40;;;1.20;;
15443;SDS011;7822;48.146;11.576;2022-07-09T15:42:19;1.50;;;1.00;;
15443;SDS011;7822;48.146;11.576;2022-07-09T15:44:47;1.73;;;1.30;;
15443;SDS011;7822;48.146;11.576;2022-07-09T15:47:16;2.78;;;1.40;;
15443;SDS011;7822;48.146;11.576;2022-07-09T15:49:46;1.30;;;1.00;;
15443;SDS011;7822;48.146;11.576;2022-07-09T15:55:17;1.10;;;1.00;;
15443;SDS011;7822;48.146;11.576;2022-07-09T15:57:50;2.55;;;1.40;;
15443;SDS011;7822;48.146;11.576;2022-07-09T16:00:21;2.50;;;2.20;;
15443;SDS011;7822;48.146;11.576;2022-07-09T16:02:53;2.25;;;1.27;;
15443;SDS011;7822;48.146;11.576;2022-07-09T16:05:53;1.55;;;1.20;;
15443;SDS011;7822;48.146;11.576;2022-07-09T16:08:43;1.10;;;1.00;;
15443;SDS011;7822;48.146;11.576;2022-07-09T16:11:21;1.58;;;1.20;;
15443;SDS011;7822;48.146;11.576;2022-07-09T16:14:09;1.17;;;0.85;;
15443;SDS011;7822;48.146;11.576;2022-07-09T16:16:39;1.15;;;0.90;;
15443;SDS011;7822;48.146;11.576;2022-07-09T16:19:08;1.20;;;1.10;;
15443;SDS011;7822;48.146;11.576;2022-07-09T16:21:36;1.30;;;1.17;;
15443;SDS011;7822;48.146;11.576;2022-07-09T16:24:04;2.92;;;1.42;;
15443;SDS011;7822;48.146;11.576;2022-07-09T16:26:36;5.93;;;1.75;;
15443;SDS011;7822;48.146;11.576;2022-07-09T16:29:12;1.85;;;1.40;;
15443;SDS011;7822;48.146;11.576;2022-07-09T16:31:40;2.45;;;1.02;;
15443;SDS011;7822;48.146;11.576;2022-07-09T16:34:08;2.60;;;1.20;;
15443;SDS011;7822;48.146;11.576;2022-07-09T16:36:35;3.33;;;1.40;;
15443;SDS011;7822;48.146;11.576;2022-07-09T16:39:03;2.08;;;1.30;;
15443;SDS011;7822;48.146;11.576;2022-07-09T16:41:31;2.05;;;1.38;;
15443;SDS011;7822;48.146;11.576;2022-07-09T16:44:36;2.53;;;1.35;;
15443;SDS011;7822;48.146;11.576;2022-07-09T16:47:04;2.60;;;1.10;;
15443;SDS011;7822;48.146;11.576;2022-07-09T16:49:33;1.92;;;1.20;;
15443;SDS011;7822;48.146;11.576;2022-07-09T16:52:25;0.90;;;0.90;;
15443;SDS011;7822;48.146;11.576;2022-07-09T17:03:01;1.63;;;1.13;;
15443;SDS011;7822;48.146;11.576;2022-07-09T17:05:29;1.10;;;1.10;;
15443;SDS011;7822;48.146;11.576;2022-07-09T17:07:57;1.52;;;1.13;;
15443;SDS011;7822;48.146;11.576;2022-07-09T17:10:25;2.00;;;1.40;;
15443;SDS011;7822;48.146;11.576;2022-07-09T17:12:52;0.90;;;0.90;;
15443;SDS011;7822;48.146;11.576;2022-07-09T17:15:20;1.40;;;1.05;;
15443;SDS011;7822;48.146;11.576;2022-07-09T17:17:48;2.42;;;1.02;;
15443;SDS011;7822;48.146;11.576;2022-07-09T17:20:17;1.30;;;1.20;;
15443;SDS011;7822;48.146;11.576;2022-07-09T17:22:45;2.22;;;1.75;;
15443;SDS011;7822;48.146;11.576;2022-07-09T17:25:13;1.70;;;1.02;;
15443;SDS011;7822;48.146;11.576;2022-07-09T17:27:48;2.28;;;1.10;;
15443;SDS011;7822;48.146;11.576;2022-07-09T17:30:30;1.40;;;1.30;;
15443;SDS011;7822;48.146;11.576;2022-07-09T17:33:04;1.50;;;1.40;;
15443;SDS011;7822;48.146;11.576;2022-07-09T17:35:34;2.00;;;1.15;;
15443;SDS011;7822;48.146;11.576;2022-07-09T17:38:02;1.73;;;1.10;;
15443;SDS011;7822;48.146;11.576;2022-07-09T17:40:29;1.15;;;1.05;;
15443;SDS011;7822;48.146;11.576;2022-07-09T17:42:57;1.75;;;1.35;;
15443;SDS011;7822;48.146;11.576;2022-07-09T17:45:25;1.85;;;1.25;;
15443;SDS011;7822;48.146;11.576;2022-07-09T17:47:53;0.90;;;0.80;;
15443;SDS011;7822;48.146;11.576;2022-07-09T17:50:20;1.98;;;1.15;;
15443;SDS011;7822;48.146;11.576;2022-07-09T17:52:50;2.05;;;1.60;;
15443;SDS011;7822;48.146;11.576;2022-07-09T17:55:18;2.90;;;1.60;;
15443;SDS011;7822;48.146;11.576;2022-07-09T17:57:50;1.63;;;1.20;;
15443;SDS011;7822;48.146;11.576;2022-07-09T18:00:21;1.80;;;1.10;;
15443;SDS011;7822;48.146;11.576;2022-07-09T18:02:50;1.20;;;1.10;;
15443;SDS011;7822;48.146;11.576;2022-07-09T18:05:18;1.40;;;1.30;;
15443;SDS011;7822;48.146;11.576;2022-07-09T18:07:46;1.40;;;1.30;;
15443;SDS011;7822;48.146;11.576;2022-07-09T18:10:16;1.42;;;1.27;;
15443;SDS011;7822;48.146;11.576;2022-07-09T18:12:44;1.73;;;1.35;;
15443;SDS011;7822;48.146;11.576;2022-07-09T18:15:12;1.90;;;1.70;;
15443;SDS011;7822;48.146;11.576;2022-07-09T18:17:40;1.95;;;1.48;;
15443;SDS011;7822;48.146;11.576;2022-07-09T18:20:09;1.50;;;1.40;;
15443;SDS011;7822;48.146;11.576;2022-07-09T18:22:38;1.67;;;1.40;;
15443;SDS011;7822;48.146;11.576;2022-07-09T18:25:08;1.38;;;1.27;;
15443;SDS011;7822;48.146;11.576;2022-07-09T18:27:38;1.25;;;0.88;;
15443;SDS011;7822;48.146;11.576;2022-07-09T18:30:06;1.50;;;1.40;;
15443;SDS011;7822;48.146;11.576;2022-07-09T18:32:40;1.52;;;1.42;;
15443;SDS011;7822;48.146;11.576;2022-07-09T18:35:08;1.48;;;1.13;;
15443;SDS011;7822;48.146;11.576;2022-07-09T18:37:35;2.47;;;1.52;;
15443;SDS011;7822;48.146;11.576;2022-07-09T18:40:03;2.75;;;1.40;;
15443;SDS011;7822;48.146;11.576;2022-07-09T18:42:31;1.58;;;1.48;;
15443;SDS011;7822;48.146;11.576;2022-07-09T18:45:01;1.73;;;1.30;;
15443;SDS011;7822;48.146;11.576;2022-07-09T18:47:28;1.38;;;1.27;;
15443;SDS011;7822;48.146;11.576;2022-07-09T18:49:56;1.92;;;1.48;;
15443;SDS011;7822;48.146;11.576;2022-07-09T18:52:24;2.20;;;1.40;;
15443;SDS011;7822;48.146;11.576;2022-07-09T18:54:51;3.03;;;1.42;;
15443;SDS011;7822;48.146;11.576;2022-07-09T18:57:19;2.15;;;1.52;;
15443;SDS011;7822;48.146;11.576;2022-07-09T18:59:47;1.70;;;1.60;;
15443;SDS011;7822;48.146;11.576;2022-07-09T19:02:16;2.38;;;1.50;;
15443;SDS011;7822;48.146;11.576;2022-07-09T19:04:44;1.52;;;1.30;;
15443;SDS011;7822;48.146;11.576;2022-07-09T19:07:12;2.63;;;1.58;;
15443;SDS011;7822;48.146;11.576;2022-07-09T19:09:39;1.92;;;1.73;;
15443;SDS011;7822;48.146;11.576;2022-07-09T19:12:07;1.65;;;1.55;;
15443;SDS011;7822;48.146;11.576;2022-07-09T19:14:35;1.55;;;1.42;;
15443;SDS011;7822;48.146;11.576;2022-07-09T19:17:03;2.83;;;1.67;;
15443;SDS011;7822;48.146;11.576;2022-07-09T19:19:32;1.67;;;1.58;;
15443;SDS011;7822;48.146;11.576;2022-07-09T19:22:00;2.15;;;1.77;;
15443;SDS011;7822;48.146;11.576;2022-07-09T19:24:27;3.72;;;1.73;;
15443;SDS011;7822;48.146;11.576;2022-07-09T19:26:55;2.20;;;2.00;;
15443;SDS011;7822;48.146;11.576;2022-07-09T19:29:23;3.22;;;1.50;;
15443;SDS011;7822;48.146;11.576;2022-07-09T19:31:51;2.17;;;1.60;;
15443;SDS011;7822;48.146;11.576;2022-07-09T19:34:37;2.65;;;1.70;;
15443;SDS011;7822;48.146;11.576;2022-07-09T19:37:05;2.35;;;1.95;;
15443;SDS011;7822;48.146;11.576;2022-07-09T19:39:32;2.08;;;1.88;;
15443;SDS011;7822;48.146;11.576;2022-07-09T19:42:00;2.55;;;2.33;;
15443;SDS011;7822;48.146;11.576;2022-07-09T19:44:28;1.70;;;1.58;;
15443;SDS011;7822;48.146;11.576;2022-07-09T19:46:56;1.98;;;1.77;;
15443;SDS011;7822;48.146;11.576;2022-07-09T19:49:25;2.42;;;1.98;;
15443;SDS011;7822;48.146;11.576;2022-07-09T19:51:54;2.13;;;1.80;;
15443;SDS011;7822;48.146;11.576;2022-07-09T19:54:22;3.83;;;1.80;;
15443;SDS011;7822;48.146;11.576;2022-07-09T19:56:49;2.55;;;1.75;;
15443;SDS011;7822;48.146;11.576;2022-07-09T19:59:17;1.83;;;1.73;;
15443;SDS011;7822;48.146;11.576;2022-07-09T20:01:45;2.83;;;2.00;;
15443;SDS011;7822;48.146;11.576;2022-07-09T20:04:13;2.25;;;2.05;;
15443;SDS011;7822;48.146;11.576;2022-07-09T20:06:41;2.35;;;1.67;;
15443;SDS011;7822;48.146;11.576;2022-07-09T20:09:10;2.40;;;1.80;;
15443;SDS011;7822;48.146;11.576;2022-07-09T20:11:38;2.28;;;2.08;;
15443;SDS011;7822;48.146;11.576;2022-07-09T20:14:06;2.60;;;1.98;;
15443;SDS011;7822;48.146;11.576;2022-07-09T20:16:33;2.47;;;2.10;;
15443;SDS011;7822;48.146;11.576;2022-07-09T20:19:03;2.10;;;1.85;;
15443;SDS011;7822;48.146;11.576;2022-07-09T20:21:32;2.58;;;2.20;;
15443;SDS011;7822;48.146;11.576;2022-07-09T20:23:59;1.90;;;1.70;;
15443;SDS011;7822;48.146;11.576;2022-07-09T20:26:29;2.47;;;1.85;;
15443;SDS011;7822;48.146;11.576;2022-07-09T20:28:56;2.60;;;2.28;;
15443;SDS011;7822;48.146;11.576;2022-07-09T20:31:24;3.67;;;2.00;;
15443;SDS011;7822;48.146;11.576;2022-07-09T20:33:52;1.95;;;1.73;;
15443;SDS011;7822;48.146;11.576;2022-07-09T20:36:20;2.22;;;1.88;;
15443;SDS011;7822;48.146;11.576;2022-07-09T20:38:48;2.67;;;2.00;;
15443;SDS011;7822;48.146;11.576;2022-07-09T20:41:15;3.50;;;1.92;;
15443;SDS011;7822;48.146;11.576;2022-07-09T20:43:45;2.20;;;1.98;;
15443;SDS011;7822;48.146;11.576;2022-07-09T20:46:13;3.40;;;1.90;;
15443;SDS011;7822;48.146;11.576;2022-07-09T20:48:40;2.20;;;2.00;;
15443;SDS011;7822;48.146;11.576;2022-07-09T20:51:08;2.10;;;1.90;;
15443;SDS011;7822;48.146;11.576;2022-07-09T20:53:36;2.85;;;1.88;;
15443;SDS011;7822;48.146;11.576;2022-07-09T20:56:05;2.47;;;2.28;;
15443;SDS011;7822;48.146;11.576;2022-07-09T20:58:33;2.20;;;2.05;;
15443;SDS011;7822;48.146;11.576;2022-07-09T21:01:02;2.25;;;1.77;;
15443;SDS011;7822;48.146;11.576;2022-07-09T21:03:30;3.05;;;1.90;;
15443;SDS011;7822;48.146;11.576;2022-07-09T21:05:57;2.90;;;2.03;;
15443;SDS011;7822;48.146;11.576;2022-07-09T21:08:25;2.75;;;2.00;;
15443;SDS011;7822;48.146;11.576;2022-07-09T21:10:53;2.17;;;1.98;;
15443;SDS011;7822;48.146;11.576;2022-07-09T21:13:21;2.97;;;2.20;;
15443;SDS011;7822;48.146;11.576;2022-07-09T21:15:49;4.38;;;1.95;;
15443;SDS011;7822;48.146;11.576;2022-07-09T21:18:18;2.33;;;2.00;;
15443;SDS011;7822;48.146;11.576;2022-07-09T21:21:21;3.67;;;1.90;;
15443;SDS011;7822;48.146;11.576;2022-07-09T21:23:54;2.10;;;1.90;;
15443;SDS011;7822;48.146;11.576;2022-07-09T21:26:23;3.03;;;2.05;;
15443;SDS011;7822;48.146;11.576;2022-07-09T21:28:52;2.17;;;1.98;;
15443;SDS011;7822;48.146;11.576;2022-07-09T21:31:20;2.42;;;2.22;;
15443;SDS011;7822;48.146;11.576;2022-07-09T21:33:49;2.78;;;2.58;;
15443;SDS011;7822;48.146;11.576;2022-07-09T21:36:17;2.83;;;1.95;;
15443;SDS011;7822;48.146;11.576;2022-07-09T21:38:44;1.90;;;1.80;;
15443;SDS011;7822;48.146;11.576;2022-07-09T21:41:12;3.28;;;2.05;;
15443;SDS011;7822;48.146;11.576;2022-07-09T21:43:40;2.20;;;1.98;;
15443;SDS011;7822;48.146;11.576;2022-07-09T21:46:08;3.83;;;1.98;;
15443;SDS011;7822;48.146;11.576;2022-07-09T21:48:36;2.17;;;1.98;;
15443;SDS011;7822;48.146;11.576;2022-07-09T21:51:05;2.30;;;2.10;;
15443;SDS011;7822;48.146;11.576;2022-07-09T21:53:33;2.58;;;1.92;;
15443;SDS011;7822;48.146;11.576;2022-07-09T21:56:01;2.13;;;1.65;;
15443;SDS011;7822;48.146;11.576;2022-07-09T21:58:29;2.58;;;1.90;;
15443;SDS011;7822;48.146;11.576;2022-07-09T22:00:57;2.60;;;2.10;;
15443;SDS011;7822;48.146;11.576;2022-07-09T22:03:24;2.17;;;1.98;;
15443;SDS011;7822;48.146;11.576;2022-07-09T22:05:53;2.30;;;1.77;;
15443;SDS011;7822;48.146;11.576;2022-07-09T22:08:22;2.53;;;2.33;;
15443;SDS011;7822;48.146;11.576;2022-07-09T22:10:50;2.20;;;2.10;;
15443;SDS011;7822;48.146;11.576;2022-07-09T22:13:18;3.08;;;2.05;;
15443;SDS011;7822;48.146;11.576;2022-07-09T22:15:46;2.10;;;1.90;;
15443;SDS011;7822;48.146;11.576;2022-07-09T22:18:14;2.38;;;2.13;;
15443;SDS011;7822;48.146;11.576;2022-07-09T22:20:42;2.10;;;1.90;;
15443;SDS011;7822;48.146;11.576;2022-07-09T22:23:10;2.42;;;1.90;;
15443;SDS011;7822;48.146;11.576;2022-07-09T22:25:39;2.42;;;2.00;;
15443;SDS011;7822;48.146;11.576;2022-07-09T22:28:07;2.58;;;1.80;;
15443;SDS011;7822;48.146;11.576;2022-07-09T22:30:35;2.55;;;2.25;;
15443;SDS011;7822;48.146;11.576;2022-07-09T22:33:03;3.05;;;1.98;;
15443;SDS011;7822;48.146;11.576;2022-07-09T22:35:31;3.05;;;2.45;;
15443;SDS011;7822;48.146;11.576;2022-07-09T22:37:59;2.30;;;2.10;;
15443;SDS011;7822;48.146;11.576;2022-07-09T22:40:30;2.33;;;2.13;;
15443;SDS011;7822;48.146;11.576;2022-07-09T22:42:59;3.38;;;1.77;;
15443;SDS011;7822;48.146;11.576;2022-07-09T22:45:27;3.17;;;2.08;;
15443;SDS011;7822;48.146;11.576;2022-07-09T22:47:55;2.95;;;2.10;;
15443;SDS011;7822;48.146;11.576;2022-07-09T22:50:23;2.70;;;2.38;;
15443;SDS011;7822;48.146;11.576;2022-07-09T22:52:51;2.42;;;2.30;;
15443;SDS011;7822;48.146;11.576;2022-07-09T22:55:19;2.50;;;2.30;;
15443;SDS011;7822;48.146;11.576;2022-07-09T22:57:47;3.78;;;2.35;;
15443;SDS011;7822;48.146;11.576;2022-07-09T23:00:17;2.13;;;1.98;;
15443;SDS011;7822;48.146;11.576;2022-07-09T23:02:45;4.07;;;2.10;;
15443;SDS011;7822;48.146;11.576;2022-07-09T23:05:13;2.95;;;2.25;;
15443;SDS011;7822;48.146;11.576;2022-07-09T23:07:41;2.42;;;2.22;;
15443;SDS011;7822;48.146;11.576;2022-07-09T23:10:26;2.25;;;2.05;;
15443;SDS011;7822;48.146;11.576;2022-07-09T23:12:54;2.97;;;2.20;;
15443;SDS011;7822;48.146;11.576;2022-07-09T23:15:24;2.55;;;2.25;;
15443;SDS011;7822;48.146;11.576;2022-07-09T23:17:52;3.00;;;2.40;;
15443;SDS011;7822;48.146;11.576;2022-07-09T23:20:20;3.60;;;3.10;;
15443;SDS011;7822;48.146;11.576;2022-07-09T23:22:48;3.03;;;2.70;;
15443;SDS011;7822;48.146;11.576;2022-07-09T23:25:16;3.13;;;2.60;;
15443;SDS011;7822;48.146;11.576;2022-07-09T23:27:44;2.38;;;2.17;;
15443;SDS011;7822;48.146;11.576;2022-07-09T23:30:12;3.35;;;2.55;;